sensor_id;sensor_type;location;lat;lon;timestamp;P1;durP1;ratioP1;P2;durP2;ratioP2
22937;SDS011;11634;42.734;23.298;2024-03-08T00:00:41;1.30;;;1.20;;
22937;SDS011;11634;42.734;23.298;2024-03-08T00:03:08;1.67;;;1.50;;
22937;SDS011;11634;42.734;23.298;2024-03-08T00:05:35;1.58;;;1.30;;
22937;SDS011;11634;42.734;23.298;2024-03-08T00:08:07;1.42;;;1.33;;
22937;SDS011;11634;42.734;23.298;2024-03-08T00:10:35;2.15;;;1.73;;
22937;SDS011;11634;42.734;23.298;2024-03-08T00:13:00;1.55;;;1.42;;
22937;SDS011;11634;42.734;23.298;2024-03-08T00:15:27;1.52;;;1.42;;
22937;SDS011;11634;42.734;23.298;2024-03-08T00:17:54;1.58;;;1.48;;
22937;SDS011;11634;42.734;23.298;2024-03-08T00:20:20;1.85;;;1.48;;
22937;SDS011;11634;42.734;23.298;2024-03-08T00:22:45;1.90;;;1.42;;
22937;SDS011;11634;42.734;23.298;2024-03-08T00:25:14;1.95;;;1.50;;
22937;SDS011;11634;42.734;23.298;2024-03-08T00:27:40;2.25;;;1.70;;
22937;SDS011;11634;42.734;23.298;2024-03-08T00:30:06;1.70;;;1.60;;
22937;SDS011;11634;42.734;23.298;2024-03-08T00:32:32;4.38;;;2.00;;
22937;SDS011;11634;42.734;23.298;2024-03-08T00:34:57;3.35;;;2.13;;
22937;SDS011;11634;42.734;23.298;2024-03-08T00:37:23;1.90;;;1.52;;
22937;SDS011;11634;42.734;23.298;2024-03-08T00:39:49;2.47;;;1.90;;
22937;SDS011;11634;42.734;23.298;2024-03-08T00:42:18;1.83;;;1.70;;
22937;SDS011;11634;42.734;23.298;2024-03-08T00:44:44;2.10;;;1.90;;
22937;SDS011;11634;42.734;23.298;2024-03-08T00:47:10;1.95;;;1.70;;
22937;SDS011;11634;42.734;23.298;2024-03-08T00:49:36;3.60;;;1.85;;
22937;SDS011;11634;42.734;23.298;2024-03-08T00:52:06;3.83;;;1.90;;
22937;SDS011;11634;42.734;23.298;2024-03-08T00:54:32;2.67;;;1.65;;
22937;SDS011;11634;42.734;23.298;2024-03-08T00:56:58;2.67;;;1.50;;
22937;SDS011;11634;42.734;23.298;2024-03-08T00:59:26;2.30;;;1.90;;
22937;SDS011;11634;42.734;23.298;2024-03-08T01:01:52;2.90;;;2.13;;
22937;SDS011;11634;42.734;23.298;2024-03-08T01:04:17;2.28;;;2.03;;
22937;SDS011;11634;42.734;23.298;2024-03-08T01:06:44;1.83;;;1.60;;
22937;SDS011;11634;42.734;23.298;2024-03-08T01:09:12;1.83;;;1.73;;
22937;SDS011;11634;42.734;23.298;2024-03-08T01:11:38;1.98;;;1.88;;
22937;SDS011;11634;42.734;23.298;2024-03-08T01:14:03;2.65;;;1.98;;
22937;SDS011;11634;42.734;23.298;2024-03-08T01:16:29;2.53;;;2.08;;
22937;SDS011;11634;42.734;23.298;2024-03-08T01:18:55;2.47;;;2.25;;
22937;SDS011;11634;42.734;23.298;2024-03-08T01:21:20;2.10;;;1.90;;
22937;SDS011;11634;42.734;23.298;2024-03-08T01:23:46;2.25;;;2.00;;
22937;SDS011;11634;42.734;23.298;2024-03-08T01:26:12;1.98;;;1.88;;
22937;SDS011;11634;42.734;23.298;2024-03-08T01:28:37;3.75;;;2.58;;
22937;SDS011;11634;42.734;23.298;2024-03-08T01:31:03;2.15;;;1.95;;
22937;SDS011;11634;42.734;23.298;2024-03-08T01:33:29;2.88;;;1.70;;
22937;SDS011;11634;42.734;23.298;2024-03-08T01:35:55;1.90;;;1.77;;
22937;SDS011;11634;42.734;23.298;2024-03-08T01:38:22;2.25;;;1.90;;
22937;SDS011;11634;42.734;23.298;2024-03-08T01:40:48;1.60;;;1.50;;
22937;SDS011;11634;42.734;23.298;2024-03-08T01:43:21;2.78;;;1.90;;
22937;SDS011;11634;42.734;23.298;2024-03-08T01:45:48;1.80;;;1.50;;
22937;SDS011;11634;42.734;23.298;2024-03-08T01:48:14;1.73;;;1.60;;
22937;SDS011;11634;42.734;23.298;2024-03-08T01:50:40;1.63;;;1.52;;
22937;SDS011;11634;42.734;23.298;2024-03-08T01:53:06;1.75;;;1.65;;
22937;SDS011;11634;42.734;23.298;2024-03-08T01:55:31;2.60;;;1.50;;
22937;SDS011;11634;42.734;23.298;2024-03-08T01:57:57;1.85;;;1.70;;
22937;SDS011;11634;42.734;23.298;2024-03-08T02:00:24;2.00;;;1.70;;
22937;SDS011;11634;42.734;23.298;2024-03-08T02:02:55;2.40;;;1.75;;
22937;SDS011;11634;42.734;23.298;2024-03-08T02:05:21;1.63;;;1.52;;
22937;SDS011;11634;42.734;23.298;2024-03-08T02:07:49;1.42;;;1.33;;
22937;SDS011;11634;42.734;23.298;2024-03-08T02:10:15;1.55;;;1.42;;
22937;SDS011;11634;42.734;23.298;2024-03-08T02:12:41;1.23;;;1.13;;
22937;SDS011;11634;42.734;23.298;2024-03-08T02:15:06;1.58;;;1.30;;
22937;SDS011;11634;42.734;23.298;2024-03-08T02:17:32;1.42;;;1.33;;
22937;SDS011;11634;42.734;23.298;2024-03-08T02:20:04;1.52;;;1.35;;
22937;SDS011;11634;42.734;23.298;2024-03-08T02:22:30;1.55;;;1.30;;
22937;SDS011;11634;42.734;23.298;2024-03-08T02:24:58;2.40;;;1.45;;
22937;SDS011;11634;42.734;23.298;2024-03-08T02:27:26;2.20;;;1.20;;
22937;SDS011;11634;42.734;23.298;2024-03-08T02:29:56;1.75;;;1.38;;
22937;SDS011;11634;42.734;23.298;2024-03-08T02:32:25;1.55;;;1.20;;
22937;SDS011;11634;42.734;23.298;2024-03-08T02:34:50;1.15;;;1.05;;
22937;SDS011;11634;42.734;23.298;2024-03-08T02:37:16;1.40;;;1.17;;
22937;SDS011;11634;42.734;23.298;2024-03-08T02:39:42;1.27;;;1.10;;
22937;SDS011;11634;42.734;23.298;2024-03-08T02:42:10;1.50;;;1.35;;
22937;SDS011;11634;42.734;23.298;2024-03-08T02:44:36;2.00;;;1.50;;
22937;SDS011;11634;42.734;23.298;2024-03-08T02:47:02;1.77;;;1.20;;
22937;SDS011;11634;42.734;23.298;2024-03-08T02:49:28;1.13;;;1.02;;
22937;SDS011;11634;42.734;23.298;2024-03-08T02:51:53;1.55;;;1.27;;
22937;SDS011;11634;42.734;23.298;2024-03-08T02:54:19;2.70;;;1.30;;
22937;SDS011;11634;42.734;23.298;2024-03-08T02:56:46;1.40;;;1.30;;
22937;SDS011;11634;42.734;23.298;2024-03-08T02:59:12;2.80;;;1.70;;
22937;SDS011;11634;42.734;23.298;2024-03-08T03:01:38;2.63;;;1.48;;
22937;SDS011;11634;42.734;23.298;2024-03-08T03:04:04;1.58;;;1.40;;
22937;SDS011;11634;42.734;23.298;2024-03-08T03:06:29;1.67;;;1.27;;
22937;SDS011;11634;42.734;23.298;2024-03-08T03:08:55;2.80;;;1.30;;
22937;SDS011;11634;42.734;23.298;2024-03-08T03:11:22;1.63;;;1.25;;
22937;SDS011;11634;42.734;23.298;2024-03-08T03:13:48;1.30;;;1.10;;
22937;SDS011;11634;42.734;23.298;2024-03-08T03:16:17;2.05;;;1.30;;
22937;SDS011;11634;42.734;23.298;2024-03-08T03:18:44;1.02;;;0.90;;
22937;SDS011;11634;42.734;23.298;2024-03-08T03:21:10;1.45;;;0.88;;
22937;SDS011;11634;42.734;23.298;2024-03-08T03:23:37;2.20;;;0.73;;
22937;SDS011;11634;42.734;23.298;2024-03-08T03:26:05;0.70;;;0.70;;
22937;SDS011;11634;42.734;23.298;2024-03-08T03:28:32;0.70;;;0.65;;
22937;SDS011;11634;42.734;23.298;2024-03-08T03:30:58;0.52;;;0.52;;
22937;SDS011;11634;42.734;23.298;2024-03-08T03:33:24;0.70;;;0.70;;
22937;SDS011;11634;42.734;23.298;2024-03-08T03:35:50;0.60;;;0.60;;
22937;SDS011;11634;42.734;23.298;2024-03-08T03:38:17;0.90;;;0.90;;
22937;SDS011;11634;42.734;23.298;2024-03-08T03:40:43;0.88;;;0.80;;
22937;SDS011;11634;42.734;23.298;2024-03-08T03:43:11;1.17;;;1.00;;
22937;SDS011;11634;42.734;23.298;2024-03-08T03:45:37;1.33;;;1.02;;
22937;SDS011;11634;42.734;23.298;2024-03-08T03:48:05;1.10;;;1.00;;
22937;SDS011;11634;42.734;23.298;2024-03-08T03:50:34;2.75;;;1.20;;
22937;SDS011;11634;42.734;23.298;2024-03-08T03:53:00;2.03;;;1.38;;
22937;SDS011;11634;42.734;23.298;2024-03-08T03:55:26;1.40;;;1.20;;
22937;SDS011;11634;42.734;23.298;2024-03-08T03:57:52;1.42;;;1.27;;
22937;SDS011;11634;42.734;23.298;2024-03-08T04:00:18;2.13;;;1.65;;
22937;SDS011;11634;42.734;23.298;2024-03-08T04:02:43;2.03;;;1.73;;
22937;SDS011;11634;42.734;23.298;2024-03-08T04:05:09;3.35;;;1.67;;
22937;SDS011;11634;42.734;23.298;2024-03-08T04:07:35;2.53;;;1.70;;
22937;SDS011;11634;42.734;23.298;2024-03-08T04:10:05;2.70;;;1.75;;
22937;SDS011;11634;42.734;23.298;2024-03-08T04:12:34;3.20;;;2.22;;
22937;SDS011;11634;42.734;23.298;2024-03-08T04:14:59;2.85;;;1.77;;
22937;SDS011;11634;42.734;23.298;2024-03-08T04:17:25;4.18;;;1.80;;
22937;SDS011;11634;42.734;23.298;2024-03-08T04:19:51;1.88;;;1.67;;
22937;SDS011;11634;42.734;23.298;2024-03-08T04:22:19;2.00;;;1.70;;
22937;SDS011;11634;42.734;23.298;2024-03-08T04:24:45;1.95;;;1.75;;
22937;SDS011;11634;42.734;23.298;2024-03-08T04:27:11;1.90;;;1.67;;
22937;SDS011;11634;42.734;23.298;2024-03-08T04:29:37;2.03;;;1.80;;
22937;SDS011;11634;42.734;23.298;2024-03-08T04:32:03;1.98;;;1.80;;
22937;SDS011;11634;42.734;23.298;2024-03-08T04:34:29;2.03;;;1.80;;
22937;SDS011;11634;42.734;23.298;2024-03-08T04:36:56;3.00;;;2.40;;
22937;SDS011;11634;42.734;23.298;2024-03-08T04:39:22;2.40;;;2.20;;
22937;SDS011;11634;42.734;23.298;2024-03-08T04:41:48;3.25;;;2.75;;
22937;SDS011;11634;42.734;23.298;2024-03-08T04:44:14;4.38;;;2.67;;
22937;SDS011;11634;42.734;23.298;2024-03-08T04:46:43;4.65;;;3.17;;
22937;SDS011;11634;42.734;23.298;2024-03-08T04:49:09;4.35;;;3.28;;
22937;SDS011;11634;42.734;23.298;2024-03-08T04:51:37;3.67;;;2.75;;
22937;SDS011;11634;42.734;23.298;2024-03-08T04:54:12;4.82;;;3.67;;
22937;SDS011;11634;42.734;23.298;2024-03-08T04:56:44;4.65;;;3.55;;
22937;SDS011;11634;42.734;23.298;2024-03-08T04:59:10;4.57;;;3.70;;
22937;SDS011;11634;42.734;23.298;2024-03-08T05:01:36;4.88;;;3.60;;
22937;SDS011;11634;42.734;23.298;2024-03-08T05:04:04;5.90;;;3.88;;
22937;SDS011;11634;42.734;23.298;2024-03-08T05:06:30;4.57;;;3.92;;
22937;SDS011;11634;42.734;23.298;2024-03-08T05:08:56;6.75;;;4.30;;
22937;SDS011;11634;42.734;23.298;2024-03-08T05:11:21;4.13;;;3.72;;
22937;SDS011;11634;42.734;23.298;2024-03-08T05:13:47;4.68;;;3.60;;
22937;SDS011;11634;42.734;23.298;2024-03-08T05:16:12;4.50;;;3.70;;
22937;SDS011;11634;42.734;23.298;2024-03-08T05:18:41;4.22;;;3.83;;
22937;SDS011;11634;42.734;23.298;2024-03-08T05:21:07;5.05;;;4.25;;
22937;SDS011;11634;42.734;23.298;2024-03-08T05:23:34;4.40;;;3.90;;
22937;SDS011;11634;42.734;23.298;2024-03-08T05:26:00;6.25;;;4.53;;
22937;SDS011;11634;42.734;23.298;2024-03-08T05:28:26;6.82;;;4.10;;
22937;SDS011;11634;42.734;23.298;2024-03-08T05:30:55;7.45;;;4.22;;
22937;SDS011;11634;42.734;23.298;2024-03-08T05:33:22;5.57;;;4.30;;
22937;SDS011;11634;42.734;23.298;2024-03-08T05:35:49;6.40;;;4.97;;
22937;SDS011;11634;42.734;23.298;2024-03-08T05:38:14;5.35;;;4.38;;
22937;SDS011;11634;42.734;23.298;2024-03-08T05:40:40;6.80;;;4.40;;
22937;SDS011;11634;42.734;23.298;2024-03-08T05:43:05;6.88;;;4.95;;
22937;SDS011;11634;42.734;23.298;2024-03-08T05:45:31;6.93;;;4.70;;
22937;SDS011;11634;42.734;23.298;2024-03-08T05:47:56;7.68;;;4.97;;
22937;SDS011;11634;42.734;23.298;2024-03-08T05:50:22;8.35;;;7.15;;
22937;SDS011;11634;42.734;23.298;2024-03-08T05:52:47;8.23;;;6.03;;
22937;SDS011;11634;42.734;23.298;2024-03-08T05:55:13;9.43;;;6.35;;
22937;SDS011;11634;42.734;23.298;2024-03-08T05:57:41;7.03;;;5.85;;
22937;SDS011;11634;42.734;23.298;2024-03-08T06:00:09;8.13;;;6.68;;
22937;SDS011;11634;42.734;23.298;2024-03-08T06:02:39;8.68;;;6.40;;
22937;SDS011;11634;42.734;23.298;2024-03-08T06:05:09;7.32;;;5.20;;
22937;SDS011;11634;42.734;23.298;2024-03-08T06:07:38;8.60;;;6.38;;
22937;SDS011;11634;42.734;23.298;2024-03-08T06:10:09;9.85;;;7.57;;
22937;SDS011;11634;42.734;23.298;2024-03-08T06:12:41;9.30;;;7.57;;
22937;SDS011;11634;42.734;23.298;2024-03-08T06:15:09;9.70;;;7.40;;
22937;SDS011;11634;42.734;23.298;2024-03-08T06:17:35;9.20;;;6.78;;
22937;SDS011;11634;42.734;23.298;2024-03-08T06:20:01;10.40;;;7.22;;
22937;SDS011;11634;42.734;23.298;2024-03-08T06:22:28;9.90;;;7.28;;
22937;SDS011;11634;42.734;23.298;2024-03-08T06:24:55;10.15;;;6.85;;
22937;SDS011;11634;42.734;23.298;2024-03-08T06:27:21;9.35;;;6.80;;
22937;SDS011;11634;42.734;23.298;2024-03-08T06:29:49;10.20;;;8.45;;
22937;SDS011;11634;42.734;23.298;2024-03-08T06:32:14;9.13;;;7.68;;
22937;SDS011;11634;42.734;23.298;2024-03-08T06:34:41;10.40;;;8.18;;
22937;SDS011;11634;42.734;23.298;2024-03-08T06:37:06;10.95;;;8.15;;
22937;SDS011;11634;42.734;23.298;2024-03-08T06:39:32;9.27;;;6.72;;
22937;SDS011;11634;42.734;23.298;2024-03-08T06:42:01;9.45;;;6.97;;
22937;SDS011;11634;42.734;23.298;2024-03-08T06:44:27;8.77;;;6.95;;
22937;SDS011;11634;42.734;23.298;2024-03-08T06:46:52;8.38;;;6.93;;
22937;SDS011;11634;42.734;23.298;2024-03-08T06:49:18;8.85;;;7.22;;
22937;SDS011;11634;42.734;23.298;2024-03-08T06:51:46;8.73;;;7.10;;
22937;SDS011;11634;42.734;23.298;2024-03-08T06:54:12;9.05;;;7.43;;
22937;SDS011;11634;42.734;23.298;2024-03-08T06:56:38;8.95;;;7.13;;
22937;SDS011;11634;42.734;23.298;2024-03-08T06:59:04;13.45;;;7.20;;
22937;SDS011;11634;42.734;23.298;2024-03-08T07:01:29;10.32;;;8.52;;
22937;SDS011;11634;42.734;23.298;2024-03-08T07:03:59;12.38;;;8.40;;
22937;SDS011;11634;42.734;23.298;2024-03-08T07:06:27;10.68;;;7.82;;
22937;SDS011;11634;42.734;23.298;2024-03-08T07:08:54;8.65;;;6.95;;
22937;SDS011;11634;42.734;23.298;2024-03-08T07:11:19;9.07;;;7.38;;
22937;SDS011;11634;42.734;23.298;2024-03-08T07:13:45;10.32;;;7.93;;
22937;SDS011;11634;42.734;23.298;2024-03-08T07:16:11;9.05;;;7.05;;
22937;SDS011;11634;42.734;23.298;2024-03-08T07:18:37;8.52;;;7.13;;
22937;SDS011;11634;42.734;23.298;2024-03-08T07:21:05;7.72;;;6.30;;
22937;SDS011;11634;42.734;23.298;2024-03-08T07:23:30;7.22;;;6.03;;
22937;SDS011;11634;42.734;23.298;2024-03-08T07:26:20;7.18;;;6.15;;
22937;SDS011;11634;42.734;23.298;2024-03-08T07:28:46;8.18;;;6.65;;
22937;SDS011;11634;42.734;23.298;2024-03-08T07:31:11;8.45;;;6.72;;
22937;SDS011;11634;42.734;23.298;2024-03-08T07:33:37;9.93;;;7.15;;
22937;SDS011;11634;42.734;23.298;2024-03-08T07:36:03;9.20;;;7.05;;
22937;SDS011;11634;42.734;23.298;2024-03-08T07:38:29;8.25;;;6.35;;
22937;SDS011;11634;42.734;23.298;2024-03-08T07:40:54;6.32;;;5.60;;
22937;SDS011;11634;42.734;23.298;2024-03-08T07:43:22;5.35;;;4.15;;
22937;SDS011;11634;42.734;23.298;2024-03-08T07:45:48;5.25;;;4.00;;
22937;SDS011;11634;42.734;23.298;2024-03-08T07:48:13;4.85;;;3.70;;
22937;SDS011;11634;42.734;23.298;2024-03-08T07:50:39;4.68;;;4.03;;
22937;SDS011;11634;42.734;23.298;2024-03-08T07:53:08;4.68;;;4.05;;
22937;SDS011;11634;42.734;23.298;2024-03-08T07:55:34;5.05;;;3.88;;
22937;SDS011;11634;42.734;23.298;2024-03-08T07:58:00;4.22;;;3.67;;
22937;SDS011;11634;42.734;23.298;2024-03-08T08:00:26;6.47;;;4.22;;
22937;SDS011;11634;42.734;23.298;2024-03-08T08:02:53;5.13;;;4.40;;
22937;SDS011;11634;42.734;23.298;2024-03-08T08:05:18;4.07;;;3.10;;
22937;SDS011;11634;42.734;23.298;2024-03-08T08:07:44;4.47;;;3.50;;
22937;SDS011;11634;42.734;23.298;2024-03-08T08:10:11;4.97;;;4.13;;
22937;SDS011;11634;42.734;23.298;2024-03-08T08:12:44;7.22;;;4.03;;
22937;SDS011;11634;42.734;23.298;2024-03-08T08:15:09;4.00;;;3.30;;
22937;SDS011;11634;42.734;23.298;2024-03-08T08:17:35;4.40;;;3.45;;
22937;SDS011;11634;42.734;23.298;2024-03-08T08:20:00;4.45;;;3.63;;
22937;SDS011;11634;42.734;23.298;2024-03-08T08:22:31;3.60;;;3.30;;
22937;SDS011;11634;42.734;23.298;2024-03-08T08:24:57;3.38;;;2.92;;
22937;SDS011;11634;42.734;23.298;2024-03-08T08:27:24;3.38;;;2.97;;
22937;SDS011;11634;42.734;23.298;2024-03-08T08:29:53;3.92;;;3.10;;
22937;SDS011;11634;42.734;23.298;2024-03-08T08:32:21;3.55;;;3.00;;
22937;SDS011;11634;42.734;23.298;2024-03-08T08:34:47;3.85;;;3.25;;
22937;SDS011;11634;42.734;23.298;2024-03-08T08:37:16;5.57;;;4.00;;
22937;SDS011;11634;42.734;23.298;2024-03-08T08:39:42;3.70;;;2.90;;
22937;SDS011;11634;42.734;23.298;2024-03-08T08:42:07;5.22;;;3.40;;
22937;SDS011;11634;42.734;23.298;2024-03-08T08:44:34;4.72;;;3.55;;
22937;SDS011;11634;42.734;23.298;2024-03-08T08:47:00;3.80;;;3.17;;
22937;SDS011;11634;42.734;23.298;2024-03-08T08:49:26;5.88;;;3.28;;
22937;SDS011;11634;42.734;23.298;2024-03-08T08:51:51;3.67;;;3.20;;
22937;SDS011;11634;42.734;23.298;2024-03-08T08:54:17;5.30;;;3.50;;
22937;SDS011;11634;42.734;23.298;2024-03-08T08:56:43;3.55;;;3.17;;
22937;SDS011;11634;42.734;23.298;2024-03-08T08:59:13;4.53;;;3.70;;
22937;SDS011;11634;42.734;23.298;2024-03-08T09:01:44;4.68;;;3.45;;
22937;SDS011;11634;42.734;23.298;2024-03-08T09:04:12;2.63;;;2.40;;
22937;SDS011;11634;42.734;23.298;2024-03-08T09:06:38;3.53;;;3.08;;
22937;SDS011;11634;42.734;23.298;2024-03-08T09:09:06;3.78;;;3.28;;
22937;SDS011;11634;42.734;23.298;2024-03-08T09:11:34;2.92;;;2.55;;
22937;SDS011;11634;42.734;23.298;2024-03-08T09:14:00;3.63;;;2.90;;
22937;SDS011;11634;42.734;23.298;2024-03-08T09:16:27;4.28;;;2.60;;
22937;SDS011;11634;42.734;23.298;2024-03-08T09:18:52;3.47;;;2.75;;
22937;SDS011;11634;42.734;23.298;2024-03-08T09:21:18;4.45;;;3.30;;
22937;SDS011;11634;42.734;23.298;2024-03-08T09:23:43;3.20;;;2.90;;
22937;SDS011;11634;42.734;23.298;2024-03-08T09:26:10;4.25;;;3.30;;
22937;SDS011;11634;42.734;23.298;2024-03-08T09:28:38;2.85;;;2.38;;
22937;SDS011;11634;42.734;23.298;2024-03-08T09:31:04;2.85;;;2.55;;
22937;SDS011;11634;42.734;23.298;2024-03-08T09:33:30;2.92;;;2.60;;
22937;SDS011;11634;42.734;23.298;2024-03-08T09:35:56;3.17;;;2.80;;
22937;SDS011;11634;42.734;23.298;2024-03-08T09:38:24;3.90;;;2.85;;
22937;SDS011;11634;42.734;23.298;2024-03-08T09:40:51;3.50;;;2.53;;
22937;SDS011;11634;42.734;23.298;2024-03-08T09:43:16;2.58;;;2.20;;
22937;SDS011;11634;42.734;23.298;2024-03-08T09:45:43;2.58;;;2.35;;
22937;SDS011;11634;42.734;23.298;2024-03-08T09:48:11;2.63;;;2.25;;
22937;SDS011;11634;42.734;23.298;2024-03-08T09:50:38;6.68;;;2.20;;
22937;SDS011;11634;42.734;23.298;2024-03-08T09:53:03;2.72;;;2.30;;
22937;SDS011;11634;42.734;23.298;2024-03-08T09:55:29;4.97;;;2.13;;
22937;SDS011;11634;42.734;23.298;2024-03-08T09:58:00;2.80;;;2.50;;
22937;SDS011;11634;42.734;23.298;2024-03-08T10:00:52;3.50;;;2.40;;
22937;SDS011;11634;42.734;23.298;2024-03-08T10:03:19;1.83;;;1.70;;
22937;SDS011;11634;42.734;23.298;2024-03-08T10:05:44;2.25;;;1.88;;
22937;SDS011;11634;42.734;23.298;2024-03-08T10:08:10;1.92;;;1.77;;
22937;SDS011;11634;42.734;23.298;2024-03-08T10:10:38;1.92;;;1.73;;
22937;SDS011;11634;42.734;23.298;2024-03-08T10:13:07;2.08;;;1.77;;
22937;SDS011;11634;42.734;23.298;2024-03-08T10:15:33;3.25;;;2.05;;
22937;SDS011;11634;42.734;23.298;2024-03-08T10:17:58;1.75;;;1.65;;
22937;SDS011;11634;42.734;23.298;2024-03-08T10:20:24;1.77;;;1.58;;
22937;SDS011;11634;42.734;23.298;2024-03-08T10:22:51;1.80;;;1.58;;
22937;SDS011;11634;42.734;23.298;2024-03-08T10:25:19;2.38;;;1.80;;
22937;SDS011;11634;42.734;23.298;2024-03-08T10:27:47;1.45;;;1.35;;
22937;SDS011;11634;42.734;23.298;2024-03-08T10:30:14;3.75;;;1.67;;
22937;SDS011;11634;42.734;23.298;2024-03-08T10:32:40;1.92;;;1.80;;
22937;SDS011;11634;42.734;23.298;2024-03-08T10:35:09;1.80;;;1.50;;
22937;SDS011;11634;42.734;23.298;2024-03-08T10:37:50;2.00;;;1.80;;
22937;SDS011;11634;42.734;23.298;2024-03-08T10:40:34;2.53;;;1.65;;
22937;SDS011;11634;42.734;23.298;2024-03-08T10:43:01;2.35;;;1.83;;
22937;SDS011;11634;42.734;23.298;2024-03-08T10:48:03;2.10;;;1.38;;
22937;SDS011;11634;42.734;23.298;2024-03-08T10:50:30;1.63;;;1.42;;
22937;SDS011;11634;42.734;23.298;2024-03-08T10:52:59;2.28;;;1.48;;
22937;SDS011;11634;42.734;23.298;2024-03-08T10:55:28;1.40;;;1.30;;
22937;SDS011;11634;42.734;23.298;2024-03-08T10:57:53;3.45;;;1.42;;
22937;SDS011;11634;42.734;23.298;2024-03-08T11:00:19;2.15;;;1.27;;
22937;SDS011;11634;42.734;23.298;2024-03-08T11:02:54;3.00;;;1.52;;
22937;SDS011;11634;42.734;23.298;2024-03-08T11:05:41;1.00;;;1.00;;
22937;SDS011;11634;42.734;23.298;2024-03-08T11:08:19;1.95;;;1.67;;
22937;SDS011;11634;42.734;23.298;2024-03-08T11:10:50;2.85;;;1.75;;
22937;SDS011;11634;42.734;23.298;2024-03-08T11:13:33;3.22;;;1.50;;
22937;SDS011;11634;42.734;23.298;2024-03-08T11:16:02;1.38;;;1.20;;
22937;SDS011;11634;42.734;23.298;2024-03-08T11:18:34;2.00;;;1.10;;
22937;SDS011;11634;42.734;23.298;2024-03-08T11:21:04;1.35;;;1.15;;
22937;SDS011;11634;42.734;23.298;2024-03-08T11:23:32;0.90;;;0.90;;
22937;SDS011;11634;42.734;23.298;2024-03-08T11:25:59;1.13;;;0.90;;
22937;SDS011;11634;42.734;23.298;2024-03-08T11:28:24;1.35;;;1.20;;
22937;SDS011;11634;42.734;23.298;2024-03-08T11:33:35;1.20;;;1.00;;
22937;SDS011;11634;42.734;23.298;2024-03-08T11:36:11;1.38;;;1.27;;
22937;SDS011;11634;42.734;23.298;2024-03-08T11:38:40;0.80;;;0.80;;
22937;SDS011;11634;42.734;23.298;2024-03-08T11:41:06;1.20;;;1.10;;
22937;SDS011;11634;42.734;23.298;2024-03-08T11:43:31;1.20;;;1.10;;
22937;SDS011;11634;42.734;23.298;2024-03-08T11:46:10;1.50;;;1.30;;
22937;SDS011;11634;42.734;23.298;2024-03-08T11:48:35;3.28;;;1.40;;
22937;SDS011;11634;42.734;23.298;2024-03-08T11:51:01;2.03;;;1.40;;
22937;SDS011;11634;42.734;23.298;2024-03-08T11:53:28;2.33;;;1.17;;
22937;SDS011;11634;42.734;23.298;2024-03-08T11:55:53;2.15;;;1.48;;
22937;SDS011;11634;42.734;23.298;2024-03-08T11:58:19;2.50;;;1.83;;
22937;SDS011;11634;42.734;23.298;2024-03-08T12:00:45;1.35;;;1.10;;
22937;SDS011;11634;42.734;23.298;2024-03-08T12:03:11;1.60;;;1.10;;
22937;SDS011;11634;42.734;23.298;2024-03-08T12:05:37;1.30;;;1.20;;
22937;SDS011;11634;42.734;23.298;2024-03-08T12:08:03;1.25;;;1.15;;
22937;SDS011;11634;42.734;23.298;2024-03-08T12:10:32;1.30;;;1.20;;
22937;SDS011;11634;42.734;23.298;2024-03-08T12:13:00;1.30;;;1.10;;
22937;SDS011;11634;42.734;23.298;2024-03-08T12:15:26;2.08;;;1.35;;
22937;SDS011;11634;42.734;23.298;2024-03-08T12:17:53;1.05;;;0.90;;
22937;SDS011;11634;42.734;23.298;2024-03-08T12:20:24;0.50;;;0.50;;
22937;SDS011;11634;42.734;23.298;2024-03-08T12:22:55;1.27;;;1.17;;
22937;SDS011;11634;42.734;23.298;2024-03-08T12:25:30;1.20;;;1.10;;
22937;SDS011;11634;42.734;23.298;2024-03-08T12:27:56;1.60;;;1.45;;
22937;SDS011;11634;42.734;23.298;2024-03-08T12:30:45;3.92;;;1.30;;
22937;SDS011;11634;42.734;23.298;2024-03-08T12:33:11;1.23;;;1.00;;
22937;SDS011;11634;42.734;23.298;2024-03-08T12:35:38;2.42;;;1.33;;
22937;SDS011;11634;42.734;23.298;2024-03-08T12:38:03;1.77;;;1.42;;
22937;SDS011;11634;42.734;23.298;2024-03-08T12:40:31;3.25;;;1.42;;
22937;SDS011;11634;42.734;23.298;2024-03-08T12:42:57;1.40;;;1.30;;
22937;SDS011;11634;42.734;23.298;2024-03-08T12:45:26;4.13;;;1.10;;
22937;SDS011;11634;42.734;23.298;2024-03-08T12:47:52;2.95;;;1.73;;
22937;SDS011;11634;42.734;23.298;2024-03-08T12:50:21;1.85;;;1.50;;
22937;SDS011;11634;42.734;23.298;2024-03-08T12:52:47;2.08;;;1.88;;
22937;SDS011;11634;42.734;23.298;2024-03-08T12:55:16;1.90;;;1.70;;
22937;SDS011;11634;42.734;23.298;2024-03-08T12:57:46;1.25;;;1.10;;
22937;SDS011;11634;42.734;23.298;2024-03-08T13:00:12;1.23;;;1.13;;
22937;SDS011;11634;42.734;23.298;2024-03-08T13:02:47;1.77;;;1.60;;
22937;SDS011;11634;42.734;23.298;2024-03-08T13:05:13;2.38;;;1.77;;
22937;SDS011;11634;42.734;23.298;2024-03-08T13:07:40;2.03;;;1.77;;
22937;SDS011;11634;42.734;23.298;2024-03-08T13:10:05;3.88;;;1.83;;
22937;SDS011;11634;42.734;23.298;2024-03-08T13:12:37;1.70;;;1.60;;
22937;SDS011;11634;42.734;23.298;2024-03-08T13:15:12;1.67;;;1.58;;
22937;SDS011;11634;42.734;23.298;2024-03-08T13:17:45;1.67;;;1.58;;
22937;SDS011;11634;42.734;23.298;2024-03-08T13:20:14;2.92;;;1.67;;
22937;SDS011;11634;42.734;23.298;2024-03-08T13:22:47;1.63;;;1.50;;
22937;SDS011;11634;42.734;23.298;2024-03-08T13:25:15;1.90;;;1.55;;
22937;SDS011;11634;42.734;23.298;2024-03-08T13:27:41;2.47;;;1.65;;
22937;SDS011;11634;42.734;23.298;2024-03-08T13:30:11;1.50;;;1.30;;
22937;SDS011;11634;42.734;23.298;2024-03-08T13:32:40;1.65;;;1.42;;
22937;SDS011;11634;42.734;23.298;2024-03-08T13:35:05;1.65;;;1.50;;
22937;SDS011;11634;42.734;23.298;2024-03-08T13:37:41;1.77;;;1.35;;
22937;SDS011;11634;42.734;23.298;2024-03-08T13:40:07;5.45;;;1.60;;
22937;SDS011;11634;42.734;23.298;2024-03-08T13:42:42;1.52;;;1.42;;
22937;SDS011;11634;42.734;23.298;2024-03-08T13:45:08;3.17;;;1.40;;
22937;SDS011;11634;42.734;23.298;2024-03-08T13:47:36;3.15;;;1.88;;
22937;SDS011;11634;42.734;23.298;2024-03-08T13:50:02;1.50;;;1.40;;
22937;SDS011;11634;42.734;23.298;2024-03-08T13:52:27;1.50;;;1.40;;
22937;SDS011;11634;42.734;23.298;2024-03-08T13:54:54;2.20;;;1.60;;
22937;SDS011;11634;42.734;23.298;2024-03-08T13:57:20;1.60;;;1.50;;
22937;SDS011;11634;42.734;23.298;2024-03-08T13:59:47;3.97;;;1.88;;
22937;SDS011;11634;42.734;23.298;2024-03-08T14:02:14;4.70;;;1.75;;
22937;SDS011;11634;42.734;23.298;2024-03-08T14:04:40;2.10;;;1.65;;
22937;SDS011;11634;42.734;23.298;2024-03-08T14:07:07;1.60;;;1.30;;
22937;SDS011;11634;42.734;23.298;2024-03-08T14:09:33;2.28;;;1.40;;
22937;SDS011;11634;42.734;23.298;2024-03-08T14:12:05;2.47;;;1.58;;
22937;SDS011;11634;42.734;23.298;2024-03-08T14:14:37;4.32;;;2.30;;
22937;SDS011;11634;42.734;23.298;2024-03-08T14:17:02;2.20;;;1.50;;
22937;SDS011;11634;42.734;23.298;2024-03-08T14:19:29;2.10;;;1.90;;
22937;SDS011;11634;42.734;23.298;2024-03-08T14:21:58;5.90;;;2.55;;
22937;SDS011;11634;42.734;23.298;2024-03-08T14:24:24;2.10;;;1.90;;
22937;SDS011;11634;42.734;23.298;2024-03-08T14:26:50;2.67;;;2.00;;
22937;SDS011;11634;42.734;23.298;2024-03-08T14:29:16;3.03;;;2.10;;
22937;SDS011;11634;42.734;23.298;2024-03-08T14:31:43;2.60;;;1.88;;
22937;SDS011;11634;42.734;23.298;2024-03-08T14:34:14;2.35;;;1.60;;
22937;SDS011;11634;42.734;23.298;2024-03-08T14:36:40;1.88;;;1.77;;
22937;SDS011;11634;42.734;23.298;2024-03-08T14:39:06;3.63;;;1.98;;